Aérodrome :
LOGIN :

S'inscrire | Disclaimer

   EN    FR    IT 

 










Légende :    VFR   VFR Marginal   IFR   IFR Intensif   IFR Très Intensif
Visi : 
Plafond : 
>= 8 km
>= 3000ft
5 à 8 km
1000 à 3000 ft
1500m à 5 km
500 à 1000 ft
800 à 1500m
200 à 500 ft
< 800m
< 200 ft
Symboles :   Orages  Brouillard  Fortes neiges  Fortes précipitations  Vent > 20 kt
SIGMETs :   Divers  Orages  Givrage  Turbulence  Onde Orograph.  Cendres Volcan.







- Altitude de l'aérodrome : -11 ft
- Code IATA : AMS


EHAM - Amsterdam Schiphol

DERNIER METAR :
  • 131255Z 22011KT 8000 FEW004 04/04 Q0995 NOSIG

METARs EXPIRÉS :
  • 131225Z 21012KT 6000 FEW003 SCT005 BKN013 04/03 Q0995 BECMG 9999 SCT020
  • 131155Z 20012KT 3200 -DZ FEW003 BKN004 OVC005 03/03 Q0995 REDZ BECMG 5000 BKN010
  • 131125Z 20015KT 4800 DZ SCT004 BKN005 03/03 Q0996 BECMG 6000
  • 131055Z 18013KT 7000 -DZ SCT004 BKN006 03/03 Q0997 BECMG 8000
  • 131025Z 18014KT 6000 -DZ FEW004 SCT005 BKN007 03/03 Q0997 TEMPO 4500

TAF TAF EHAM
Valide du 13 à 12h jusqu'au 14 à 18h UTC


131114Z 1312/1418 19015KT 4000 -RADZ SCT004 BKN006
PROB30 1312/1314 26013KT
BECMG 1313/1315 21017G27KT 9999 NSW SCT020
PROB40
TEMPO 1315/1320 6000 -SHRA RA BKN013 FEW020CB
BECMG 1318/1321 27015G25KT
BECMG 1322/1401 24015KT
TEMPO 1400/1412 27020G30KT 3500 SHRA TSRAGS SCT018CB BKN020
BECMG 1412/1415 20013KT
PROB30
TEMPO 1412/1418 4500 TSRAGS SCT020CB SCT030
Pas de NOTAMs connus pour ce terrain.



MET'MAP, la Météo Aéronautique d'un coup d'oeil ! - Copyright ORBIFLY Décembre 2007 - Disclaimer

ORBIFLY MET'MAP TEAM :

Programmation & Développement : Alexandra Zaïnal
Conception & Développement : Baudouin d'Aumeries
Co-Programmation & Développement : Marc-Olivier Méhu
Soutien technique & logistique : Manuel Goepfert

Contact : metmap@orbifly.com




SOURCES & CREDITS :

   NOAA